Time;durP1;ratioP1;P1;durP2;ratioP2;P2;SDS_P1;SDS_P2;PMS_P1;PMS_P2;Temp;Humidity;BMP_temperature;BMP_pressure;BME280_temperature;BME280_humidity;BME280_pressure;Samples;Min_cycle;Max_cycle;Signal;HPM_P1;HPM_P2
2023/11/23 00:00:11;;;;;;;15.77;14.60;;;6.50;19.90;;;;;;5044248;28;20457;-81
2023/11/23 00:02:38;;;;;;;16.30;15.30;;;6.50;20.00;;;;;;5043855;28;20547;-81
2023/11/23 00:05:04;;;;;;;16.60;15.50;;;6.00;20.90;;;;;;5042343;28;20431;-80
2023/11/23 00:07:32;;;;;;;16.37;15.27;;;5.90;21.60;;;;;;5037893;28;20427;-81
2023/11/23 00:09:57;;;;;;;16.17;15.20;;;5.90;21.30;;;;;;5038278;28;20458;-82
2023/11/23 00:12:23;;;;;;;16.20;15.30;;;6.10;21.50;;;;;;5038007;28;20419;-81
2023/11/23 00:14:48;;;;;;;15.90;14.90;;;6.30;21.60;;;;;;5036854;28;20184;-81
2023/11/23 00:17:15;;;;;;;15.70;14.80;;;6.60;20.70;;;;;;5038969;28;20199;-81
2023/11/23 00:19:41;;;;;;;17.30;16.20;;;6.70;19.90;;;;;;5043394;28;20635;-81
2023/11/23 00:22:06;;;;;;;16.90;15.80;;;6.40;19.70;;;;;;5037948;28;20427;-81
2023/11/23 00:24:32;;;;;;;17.60;16.47;;;6.10;21.20;;;;;;5050153;28;20177;-80
2023/11/23 00:26:58;;;;;;;17.50;16.40;;;5.90;21.30;;;;;;5037285;28;20660;-80
2023/11/23 00:29:23;;;;;;;17.63;16.33;;;5.60;21.80;;;;;;5038653;28;20204;-81
2023/11/23 00:31:49;;;;;;;17.50;16.50;;;5.50;22.60;;;;;;5037002;28;20193;-81
2023/11/23 00:34:14;;;;;;;17.50;16.40;;;5.50;22.90;;;;;;5037724;28;20185;-81
2023/11/23 00:36:40;;;;;;;18.13;16.93;;;5.70;23.10;;;;;;5037093;28;20189;-80
2023/11/23 00:39:09;;;;;;;16.60;15.53;;;6.00;22.10;;;;;;5036872;28;20200;-81
2023/11/23 00:41:38;;;;;;;16.67;15.60;;;6.30;21.60;;;;;;5037007;28;20625;-81
2023/11/23 00:44:05;;;;;;;17.10;15.90;;;6.50;21.10;;;;;;5037045;28;20431;-80
2023/11/23 00:46:31;;;;;;;17.10;15.70;;;6.50;20.70;;;;;;5036634;28;20423;-81
2023/11/23 00:51:32;;;;;;;17.07;16.07;;;6.20;21.40;;;;;;5007449;22;20489;-60
2023/11/23 00:53:58;;;;;;;16.73;15.63;;;5.90;21.30;;;;;;4975568;28;20425;-61
2023/11/23 00:56:23;;;;;;;16.50;15.50;;;5.70;22.40;;;;;;4975914;28;20456;-61
2023/11/23 00:58:51;;;;;;;18.17;16.90;;;5.50;22.70;;;;;;4975595;28;20515;-61
2023/11/23 01:01:18;;;;;;;18.87;17.70;;;5.20;23.20;;;;;;4975756;28;20268;-61
2023/11/23 01:03:44;;;;;;;18.33;17.23;;;5.10;23.70;;;;;;4975473;28;20571;-61
2023/11/23 01:06:10;;;;;;;18.90;17.17;;;5.00;24.00;;;;;;4976091;28;20444;-62
2023/11/23 01:08:35;;;;;;;16.67;15.57;;;5.00;24.50;;;;;;4975119;28;20937;-61
2023/11/23 01:11:02;;;;;;;16.70;15.70;;;5.10;24.10;;;;;;4975502;28;20523;-61
2023/11/23 01:13:29;;;;;;;17.90;16.80;;;5.00;24.00;;;;;;4975536;28;20182;-61
2023/11/23 01:15:55;;;;;;;17.17;16.10;;;5.10;24.20;;;;;;4975351;28;20441;-61
2023/11/23 01:18:21;;;;;;;16.33;15.43;;;5.20;24.20;;;;;;4975452;28;20464;-61
2023/11/23 01:20:47;;;;;;;15.87;14.83;;;5.10;24.20;;;;;;4975353;28;20433;-60
2023/11/23 01:23:13;;;;;;;17.67;16.67;;;5.10;24.40;;;;;;4975196;28;20483;-60
2023/11/23 01:25:39;;;;;;;18.40;17.20;;;5.10;24.70;;;;;;4975406;28;20413;-60
2023/11/23 01:28:05;;;;;;;18.50;17.20;;;5.10;24.30;;;;;;4975385;28;20190;-60
2023/11/23 01:30:31;;;;;;;17.40;16.30;;;5.10;24.60;;;;;;4975247;28;20186;-60
2023/11/23 01:32:56;;;;;;;17.30;16.20;;;5.10;24.60;;;;;;4975073;28;20433;-60
2023/11/23 01:35:22;;;;;;;17.40;16.30;;;5.10;24.70;;;;;;4975367;28;20248;-60
2023/11/23 01:37:48;;;;;;;16.90;15.90;;;4.90;24.70;;;;;;4975095;28;20628;-62
2023/11/23 01:40:15;;;;;;;18.10;16.70;;;4.80;25.30;;;;;;4975184;28;20425;-62
2023/11/23 01:42:41;;;;;;;18.63;17.50;;;4.90;25.60;;;;;;4974942;28;20508;-61
2023/11/23 01:45:07;;;;;;;18.00;16.90;;;4.90;25.30;;;;;;4992533;28;20517;-62
2023/11/23 01:47:36;;;;;;;17.90;16.90;;;4.80;25.40;;;;;;4975128;28;20589;-62
2023/11/23 01:50:03;;;;;;;18.40;17.10;;;4.80;25.50;;;;;;4974904;28;20429;-62
2023/11/23 01:52:30;;;;;;;18.33;17.23;;;4.90;25.30;;;;;;4975101;28;20421;-62
2023/11/23 01:54:56;;;;;;;19.90;18.40;;;5.10;25.20;;;;;;4974784;28;20452;-62
2023/11/23 01:57:22;;;;;;;19.00;17.90;;;5.30;24.90;;;;;;4975138;28;20471;-62
2023/11/23 01:59:50;;;;;;;17.87;16.77;;;5.40;24.30;;;;;;4974947;28;20963;-62
2023/11/23 02:02:16;;;;;;;17.80;16.70;;;5.30;24.20;;;;;;4975088;28;20504;-62
2023/11/23 02:04:42;;;;;;;17.93;16.73;;;5.30;24.30;;;;;;4974801;28;20440;-62
2023/11/23 02:07:08;;;;;;;17.97;16.77;;;5.20;24.60;;;;;;4974935;28;20440;-62
2023/11/23 02:09:34;;;;;;;18.50;17.03;;;5.20;25.00;;;;;;4974995;28;20515;-50
2023/11/23 02:12:01;;;;;;;18.23;17.13;;;5.40;24.40;;;;;;4974873;28;20489;-52
2023/11/23 02:14:30;;;;;;;17.10;16.00;;;5.30;24.50;;;;;;4974796;28;20742;-49
2023/11/23 02:16:56;;;;;;;18.93;17.63;;;5.30;24.40;;;;;;4974738;28;20471;-51
2023/11/23 02:19:22;;;;;;;18.27;17.17;;;5.40;24.60;;;;;;4975265;28;20496;-50
2023/11/23 02:21:48;;;;;;;18.13;16.80;;;5.10;24.70;;;;;;4978751;28;20729;-53
2023/11/23 02:24:14;;;;;;;18.73;17.53;;;5.10;25.10;;;;;;4978608;28;20395;-62
2023/11/23 02:26:39;;;;;;;18.60;17.40;;;5.20;24.60;;;;;;4978738;28;20436;-62
2023/11/23 02:29:05;;;;;;;19.13;17.87;;;5.30;24.90;;;;;;4978381;28;20189;-62
2023/11/23 02:31:33;;;;;;;18.40;17.20;;;5.40;24.30;;;;;;4978633;28;20190;-62
2023/11/23 02:34:00;;;;;;;16.70;15.50;;;5.60;24.30;;;;;;4978293;28;20198;-63
2023/11/23 02:36:26;;;;;;;19.33;18.03;;;5.70;23.60;;;;;;4978449;28;20528;-63
2023/11/23 02:38:52;;;;;;;18.03;16.83;;;5.50;23.40;;;;;;4978180;28;20965;-62
2023/11/23 02:41:17;;;;;;;18.27;17.07;;;5.30;24.20;;;;;;4978499;28;20433;-62
2023/11/23 02:43:43;;;;;;;17.57;16.57;;;5.30;24.20;;;;;;4995531;28;20186;-62
2023/11/23 02:46:09;;;;;;;17.97;16.77;;;5.30;24.90;;;;;;4970258;28;20182;-62
2023/11/23 02:48:34;;;;;;;17.47;16.47;;;5.50;25.10;;;;;;4978207;28;20249;-62
2023/11/23 02:51:00;;;;;;;17.50;16.47;;;5.40;24.60;;;;;;4977988;28;20194;-62
2023/11/23 02:53:30;;;;;;;17.53;16.50;;;5.40;24.80;;;;;;4978048;28;20194;-62
2023/11/23 02:55:56;;;;;;;18.27;17.23;;;5.40;24.50;;;;;;4978052;28;20181;-62
2023/11/23 02:58:22;;;;;;;17.00;15.90;;;5.40;24.70;;;;;;4977977;28;20729;-62
2023/11/23 03:00:53;;;;;;;17.53;16.40;;;5.50;24.50;;;;;;4977710;28;20431;-52
2023/11/23 03:03:19;;;;;;;18.60;17.47;;;5.50;24.30;;;;;;4977886;28;20433;-50
2023/11/23 03:05:45;;;;;;;17.47;16.37;;;5.60;24.20;;;;;;4977782;28;20848;-49
2023/11/23 03:08:11;;;;;;;18.73;17.50;;;5.70;24.00;;;;;;4977895;28;20520;-49
2023/11/23 03:10:36;;;;;;;17.80;16.70;;;5.90;24.00;;;;;;4977929;28;20194;-48
2023/11/23 03:13:02;;;;;;;18.07;16.97;;;6.00;22.90;;;;;;4977492;28;20189;-47
2023/11/23 03:15:29;;;;;;;16.90;15.80;;;6.00;23.40;;;;;;4977645;28;20190;-53
2023/11/23 03:17:55;;;;;;;17.03;15.90;;;6.20;23.80;;;;;;4977562;28;20555;-46
2023/11/23 03:20:20;;;;;;;17.10;16.00;;;6.10;23.10;;;;;;4977844;28;20584;-47
2023/11/23 03:22:46;;;;;;;17.40;16.30;;;6.20;23.50;;;;;;4977321;28;20432;-52
2023/11/23 03:25:12;;;;;;;18.17;16.97;;;6.20;22.70;;;;;;4977641;28;20304;-47
2023/11/23 03:27:38;;;;;;;16.60;15.60;;;6.10;22.60;;;;;;4977104;28;20276;-49
2023/11/23 03:30:09;;;;;;;17.10;16.00;;;5.80;22.90;;;;;;4976992;28;20201;-53
2023/11/23 03:32:35;;;;;;;16.13;15.17;;;5.60;23.80;;;;;;4977306;28;20225;-51
2023/11/23 03:35:00;;;;;;;16.80;15.70;;;5.60;23.90;;;;;;4977301;28;20458;-50
2023/11/23 03:37:27;;;;;;;17.53;16.23;;;5.30;24.30;;;;;;4977286;28;20257;-50
2023/11/23 03:39:54;;;;;;;17.53;16.33;;;5.50;24.50;;;;;;4977254;28;20186;-51
2023/11/23 03:42:19;;;;;;;16.70;15.73;;;5.40;24.00;;;;;;4977276;28;20423;-49
2023/11/23 03:44:45;;;;;;;17.30;16.30;;;5.50;24.80;;;;;;4976971;28;20426;-50
2023/11/23 03:47:11;;;;;;;16.00;15.10;;;5.50;24.50;;;;;;4977096;28;20182;-50
2023/11/23 03:49:36;;;;;;;15.57;14.67;;;5.60;24.20;;;;;;4977059;28;20532;-50
2023/11/23 03:52:02;;;;;;;16.30;15.30;;;5.60;24.00;;;;;;4977094;28;20232;-46
2023/11/23 03:54:28;;;;;;;16.57;15.57;;;5.70;23.70;;;;;;4976818;28;20524;-47
2023/11/23 03:56:53;;;;;;;16.30;15.30;;;5.50;24.00;;;;;;4976946;28;20601;-51
2023/11/23 03:59:19;;;;;;;16.33;15.23;;;5.50;24.20;;;;;;4976832;28;20240;-49
2023/11/23 04:01:46;;;;;;;17.17;16.10;;;5.60;23.90;;;;;;4976919;28;20193;-50
2023/11/23 04:04:12;;;;;;;17.07;15.97;;;5.50;24.10;;;;;;4994165;28;20182;-49
2023/11/23 04:06:39;;;;;;;15.60;14.60;;;5.40;24.50;;;;;;4976774;28;20934;-50
2023/11/23 04:09:05;;;;;;;16.10;15.10;;;5.40;24.40;;;;;;4976679;28;20429;-49
2023/11/23 04:11:30;;;;;;;16.30;15.20;;;5.50;25.00;;;;;;4976587;28;20495;-62
2023/11/23 04:13:56;;;;;;;15.90;15.00;;;5.50;25.30;;;;;;4976655;28;20186;-62
2023/11/23 04:16:21;;;;;;;16.07;15.07;;;5.70;23.80;;;;;;4976635;28;20181;-62
2023/11/23 04:18:47;;;;;;;16.70;15.70;;;5.60;23.50;;;;;;4974410;28;20209;-62
2023/11/23 04:21:14;;;;;;;16.90;15.80;;;5.50;24.20;;;;;;3953343;22;20806;-53
2023/11/23 04:23:40;;;;;;;15.37;14.43;;;5.60;23.60;;;;;;4950874;28;20182;-55
2023/11/23 04:26:06;;;;;;;16.33;15.23;;;5.60;23.80;;;;;;4957055;28;20937;-56
2023/11/23 04:28:34;;;;;;;16.60;15.60;;;5.60;23.90;;;;;;4956333;28;20738;-55
2023/11/23 04:30:59;;;;;;;16.10;15.10;;;5.70;24.20;;;;;;4997070;28;20449;-45
2023/11/23 04:33:26;;;;;;;16.07;14.97;;;5.90;24.00;;;;;;4960404;28;20434;-47
2023/11/23 04:35:52;;;;;;;15.43;14.43;;;6.10;23.20;;;;;;4960947;28;20191;-46
2023/11/23 04:38:18;;;;;;;15.97;14.97;;;6.00;23.00;;;;;;4964062;28;20462;-45
2023/11/23 04:40:43;;;;;;;14.97;14.07;;;6.00;22.70;;;;;;4964106;28;20488;-56
2023/11/23 04:43:09;;;;;;;14.80;14.00;;;5.90;23.20;;;;;;4960174;28;20182;-56
2023/11/23 04:45:35;;;;;;;15.57;14.67;;;5.90;23.40;;;;;;4961997;28;20270;-55
2023/11/23 04:48:01;;;;;;;16.10;15.10;;;5.90;23.40;;;;;;4962900;28;20437;-47
2023/11/23 04:50:26;;;;;;;16.87;15.67;;;5.90;23.50;;;;;;4964734;28;20194;-49
2023/11/23 04:52:52;;;;;;;15.13;14.27;;;5.80;23.30;;;;;;4964339;28;20201;-49
2023/11/23 04:55:19;;;;;;;15.97;14.97;;;5.80;23.80;;;;;;4961312;28;20186;-46
2023/11/23 04:57:44;;;;;;;16.63;15.63;;;5.80;23.40;;;;;;4961128;28;20195;-47
2023/11/23 05:00:11;;;;;;;15.13;14.23;;;5.80;23.70;;;;;;4963631;28;20799;-45
2023/11/23 05:02:37;;;;;;;14.20;13.40;;;5.70;23.70;;;;;;4964329;28;20603;-45
2023/11/23 05:05:02;;;;;;;15.50;14.60;;;5.60;23.60;;;;;;4963112;28;20422;-48
2023/11/23 05:07:28;;;;;;;16.10;15.10;;;5.50;24.20;;;;;;4961089;28;20954;-45
2023/11/23 05:09:54;;;;;;;15.37;14.47;;;5.50;24.20;;;;;;4961146;28;20664;-45
2023/11/23 05:12:19;;;;;;;15.50;14.60;;;5.30;24.70;;;;;;4964321;28;20278;-56
2023/11/23 05:14:45;;;;;;;15.43;14.53;;;5.30;24.60;;;;;;4964205;28;20186;-55
2023/11/23 05:17:10;;;;;;;15.20;14.33;;;5.30;24.60;;;;;;4961837;28;20273;-56
2023/11/23 05:19:36;;;;;;;14.67;13.77;;;5.20;24.60;;;;;;4944789;29;20203;-56
2023/11/23 05:22:02;;;;;;;14.97;14.17;;;5.10;25.00;;;;;;4960916;28;20202;-56
2023/11/23 05:24:27;;;;;;;15.57;14.57;;;5.20;25.00;;;;;;4957676;28;20269;-56
2023/11/23 05:26:55;;;;;;;15.30;14.40;;;5.10;25.00;;;;;;4964293;28;20183;-56
2023/11/23 05:29:21;;;;;;;14.97;14.13;;;5.10;25.00;;;;;;4961062;28;20619;-55
2023/11/23 05:31:47;;;;;;;14.27;13.47;;;5.00;25.40;;;;;;4947482;29;20474;-55
2023/11/23 05:36:44;;;;;;;14.30;13.47;;;4.90;25.30;;;;;;5002618;22;20505;-59
2023/11/23 05:39:11;;;;;;;17.00;16.00;;;4.90;25.70;;;;;;4973881;28;20959;-51
2023/11/23 05:41:36;;;;;;;15.20;14.20;;;4.90;25.50;;;;;;4975211;28;20186;-51
2023/11/23 05:44:02;;;;;;;14.97;14.10;;;5.00;25.40;;;;;;4975023;28;20425;-49
2023/11/23 05:46:30;;;;;;;17.57;16.17;;;5.30;25.30;;;;;;4975178;28;20586;-49
2023/11/23 05:48:56;;;;;;;15.07;14.27;;;5.30;24.60;;;;;;4974947;28;20190;-49
2023/11/23 05:51:22;;;;;;;14.10;13.30;;;5.50;24.70;;;;;;4975116;28;20520;-51
2023/11/23 05:53:47;;;;;;;15.97;14.97;;;5.70;24.30;;;;;;4974690;28;20520;-50
2023/11/23 05:56:13;;;;;;;14.47;13.57;;;5.70;23.70;;;;;;4975010;28;20524;-57
2023/11/23 05:58:39;;;;;;;16.90;15.90;;;5.60;24.00;;;;;;4974937;28;20264;-51
2023/11/23 06:01:05;;;;;;;14.20;13.30;;;5.60;24.30;;;;;;4959006;28;20185;-51
2023/11/23 06:03:31;;;;;;;13.67;12.87;;;5.50;24.10;;;;;;4969636;28;20182;-49
2023/11/23 06:05:57;;;;;;;14.50;13.70;;;5.50;25.30;;;;;;4972058;28;20430;-48
2023/11/23 06:08:22;;;;;;;13.80;13.00;;;5.40;24.90;;;;;;4975388;28;20316;-50
2023/11/23 06:10:48;;;;;;;13.20;12.40;;;5.20;24.90;;;;;;4975366;28;20650;-50
2023/11/23 06:13:15;;;;;;;13.63;12.93;;;5.20;25.10;;;;;;4975057;28;20293;-59
2023/11/23 06:15:40;;;;;;;14.37;13.57;;;5.10;26.20;;;;;;4975469;28;20555;-58
2023/11/23 06:18:06;;;;;;;12.80;12.10;;;5.30;26.00;;;;;;4975103;28;20456;-59
2023/11/23 06:20:32;;;;;;;13.40;12.60;;;5.40;25.20;;;;;;4959121;28;20650;-59
2023/11/23 06:22:58;;;;;;;14.60;13.80;;;5.60;25.10;;;;;;4974667;28;20178;-59
2023/11/23 06:25:23;;;;;;;14.00;13.20;;;5.90;24.70;;;;;;4975421;28;20240;-59
2023/11/23 06:27:49;;;;;;;14.17;13.37;;;6.10;24.10;;;;;;4975133;28;20496;-59
2023/11/23 06:30:14;;;;;;;13.87;13.17;;;6.20;23.60;;;;;;4992499;28;20646;-53
2023/11/23 06:32:40;;;;;;;13.07;12.37;;;6.40;23.50;;;;;;4974922;28;20199;-59
2023/11/23 06:35:07;;;;;;;15.40;14.43;;;6.50;22.70;;;;;;4974848;28;20193;-59
2023/11/23 06:37:32;;;;;;;14.63;13.90;;;6.60;22.00;;;;;;4974732;28;20535;-49
2023/11/23 06:39:58;;;;;;;14.07;13.27;;;6.60;22.50;;;;;;4979495;28;20552;-52
2023/11/23 06:42:23;;;;;;;12.63;11.93;;;6.70;21.90;;;;;;4982495;28;20190;-50
2023/11/23 06:44:49;;;;;;;13.00;12.30;;;6.70;21.90;;;;;;4974792;28;20251;-49
2023/11/23 06:47:15;;;;;;;13.90;13.20;;;6.40;21.90;;;;;;4974553;28;20544;-49
2023/11/23 06:49:41;;;;;;;13.57;12.87;;;6.40;21.90;;;;;;4974495;28;20436;-49
2023/11/23 06:52:09;;;;;;;12.83;11.80;;;6.30;22.40;;;;;;4974650;28;20200;-50
2023/11/23 06:54:34;;;;;;;13.60;12.80;;;6.20;22.60;;;;;;4974320;28;20190;-53
2023/11/23 06:57:02;;;;;;;13.57;12.73;;;6.00;22.80;;;;;;4974293;28;20436;-55
2023/11/23 06:59:29;;;;;;;12.60;11.90;;;6.10;23.20;;;;;;4973256;28;20283;-53
2023/11/23 07:01:55;;;;;;;13.50;12.70;;;6.00;23.20;;;;;;4966813;28;20453;-50
2023/11/23 07:04:21;;;;;;;12.10;11.50;;;6.10;22.90;;;;;;4973916;28;20447;-51
2023/11/23 07:06:47;;;;;;;12.07;11.37;;;6.00;22.40;;;;;;4976906;28;20196;-51
2023/11/23 07:09:13;;;;;;;12.20;11.60;;;5.90;23.00;;;;;;4977744;28;20432;-51
2023/11/23 07:11:40;;;;;;;11.40;10.80;;;5.90;22.60;;;;;;4977685;28;20193;-49
2023/11/23 07:14:06;;;;;;;11.43;10.73;;;5.60;22.70;;;;;;4977543;28;20524;-54
2023/11/23 07:16:32;;;;;;;14.30;13.50;;;5.50;23.70;;;;;;4977787;28;20541;-51
2023/11/23 07:18:58;;;;;;;10.80;10.20;;;5.40;23.40;;;;;;4977529;28;20567;-50
2023/11/23 07:21:23;;;;;;;10.80;10.20;;;5.30;23.70;;;;;;4977656;28;20186;-55
2023/11/23 07:23:49;;;;;;;13.53;12.73;;;5.20;24.10;;;;;;4977456;28;20430;-54
2023/11/23 07:26:15;;;;;;;12.20;11.50;;;5.20;24.20;;;;;;4977717;28;20213;-54
2023/11/23 07:28:40;;;;;;;12.27;11.67;;;5.30;24.10;;;;;;4977649;28;20201;-51
2023/11/23 07:31:09;;;;;;;11.33;10.73;;;5.40;24.00;;;;;;4994958;28;20443;-50
2023/11/23 07:33:35;;;;;;;12.80;12.00;;;5.50;23.30;;;;;;4977205;28;20196;-50
2023/11/23 07:36:04;;;;;;;11.20;10.60;;;5.70;22.70;;;;;;4977133;28;20491;-53
2023/11/23 07:38:32;;;;;;;11.93;11.20;;;5.60;22.40;;;;;;4977216;28;20473;-51
2023/11/23 07:40:58;;;;;;;11.57;10.97;;;5.40;22.80;;;;;;4977352;28;20429;-55
2023/11/23 07:43:24;;;;;;;12.50;11.80;;;5.30;23.50;;;;;;4977104;28;20441;-50
2023/11/23 07:45:50;;;;;;;11.43;10.73;;;5.00;24.10;;;;;;4977328;28;20436;-50
2023/11/23 07:48:16;;;;;;;11.83;11.13;;;5.00;24.30;;;;;;4977042;28;20675;-49
2023/11/23 07:50:43;;;;;;;12.13;11.43;;;5.00;24.40;;;;;;4977100;28;20443;-55
2023/11/23 07:53:09;;;;;;;12.40;11.73;;;5.00;25.00;;;;;;4976939;28;20447;-52
2023/11/23 07:55:35;;;;;;;12.53;11.90;;;5.10;24.60;;;;;;4976787;28;20425;-54
2023/11/23 07:58:01;;;;;;;12.87;12.17;;;5.20;25.00;;;;;;4976919;28;20461;-58
2023/11/23 08:00:27;;;;;;;12.70;12.00;;;5.40;24.90;;;;;;4968801;28;20444;-57
2023/11/23 08:02:54;;;;;;;12.60;11.70;;;5.50;24.90;;;;;;4973599;28;20194;-56
2023/11/23 08:05:20;;;;;;;14.83;12.13;;;5.50;24.70;;;;;;4972155;28;20470;-57
2023/11/23 08:07:47;;;;;;;11.70;11.10;;;5.50;24.90;;;;;;4976298;28;20508;-52
2023/11/23 08:10:15;;;;;;;12.13;11.53;;;5.40;24.90;;;;;;4976293;28;20437;-56
2023/11/23 08:12:42;;;;;;;11.70;11.00;;;5.40;25.10;;;;;;4976907;28;20456;-57
2023/11/23 08:15:09;;;;;;;11.90;11.30;;;5.30;25.50;;;;;;4974911;28;20906;-57
2023/11/23 08:17:36;;;;;;;12.80;12.00;;;5.40;26.00;;;;;;4976617;28;20877;-57
2023/11/23 08:20:06;;;;;;;11.77;11.17;;;5.30;26.10;;;;;;4976642;28;20465;-57
2023/11/23 08:22:32;;;;;;;12.80;12.00;;;5.30;26.10;;;;;;4961287;28;20969;-55
2023/11/23 08:24:57;;;;;;;12.10;11.40;;;5.40;26.30;;;;;;4976394;28;20429;-57
2023/11/23 08:27:24;;;;;;;11.80;11.00;;;5.40;26.20;;;;;;4976281;28;20488;-57
2023/11/23 08:29:50;;;;;;;12.53;11.73;;;5.50;26.70;;;;;;4994005;28;20590;-50
2023/11/23 08:32:16;;;;;;;12.40;11.60;;;5.50;26.80;;;;;;4976255;28;20437;-50
2023/11/23 08:34:42;;;;;;;12.17;11.47;;;5.40;27.00;;;;;;4975927;28;20425;-52
2023/11/23 08:37:07;;;;;;;11.93;11.23;;;5.50;27.00;;;;;;4975820;28;20446;-49
2023/11/23 08:39:34;;;;;;;12.30;11.60;;;5.50;27.10;;;;;;4975981;28;20469;-54
2023/11/23 08:42:00;;;;;;;11.70;11.00;;;5.60;27.00;;;;;;4993598;28;20170;-52
2023/11/23 08:44:26;;;;;;;12.73;11.93;;;5.80;26.20;;;;;;4975850;28;20431;-52
2023/11/23 08:46:51;;;;;;;12.17;11.47;;;6.00;26.20;;;;;;4976232;28;20196;-53
2023/11/23 08:49:18;;;;;;;11.47;10.67;;;6.20;25.20;;;;;;4975989;28;20197;-51
2023/11/23 08:51:44;;;;;;;11.60;10.90;;;6.20;25.00;;;;;;4975992;28;20192;-55
2023/11/23 08:54:09;;;;;;;11.00;10.50;;;6.30;24.90;;;;;;4975770;28;20425;-51
2023/11/23 08:56:36;;;;;;;11.50;10.90;;;6.20;24.80;;;;;;4975921;28;20245;-50
2023/11/23 08:59:02;;;;;;;10.70;10.00;;;6.30;25.80;;;;;;4975752;28;20197;-51
2023/11/23 09:01:28;;;;;;;11.60;11.10;;;6.30;25.40;;;;;;4975042;28;20512;-52
2023/11/23 09:03:56;;;;;;;11.53;10.90;;;6.50;24.90;;;;;;4992826;28;20449;-52
2023/11/23 09:06:22;;;;;;;11.47;10.87;;;6.70;25.00;;;;;;4975769;28;20184;-53
2023/11/23 09:08:48;;;;;;;13.53;12.50;;;6.70;24.70;;;;;;4975855;28;20893;-51
2023/11/23 09:11:15;;;;;;;11.30;10.50;;;6.80;24.60;;;;;;4968791;28;20549;-52
2023/11/23 09:13:41;;;;;;;10.87;10.20;;;6.90;24.50;;;;;;4975564;28;20516;-55
2023/11/23 09:16:07;;;;;;;10.40;9.90;;;6.90;24.20;;;;;;4975453;28;20871;-55
2023/11/23 09:18:33;;;;;;;11.37;10.67;;;6.80;24.90;;;;;;4975284;28;20263;-53
2023/11/23 09:20:59;;;;;;;11.97;11.27;;;6.90;25.10;;;;;;4975644;28;20842;-50
2023/11/23 09:23:27;;;;;;;13.30;12.30;;;7.10;25.00;;;;;;4975426;28;20433;-58
2023/11/23 09:25:53;;;;;;;13.03;12.03;;;7.20;24.70;;;;;;4975139;28;20259;-59
2023/11/23 09:28:20;;;;;;;13.00;12.00;;;7.10;24.80;;;;;;4974465;28;20460;-59
2023/11/23 09:30:46;;;;;;;11.43;10.83;;;7.00;24.90;;;;;;4974318;28;20468;-57
2023/11/23 09:33:11;;;;;;;13.60;12.47;;;7.10;25.60;;;;;;4975222;28;20437;-59
2023/11/23 09:35:38;;;;;;;13.23;12.40;;;7.30;25.00;;;;;;4975304;28;20437;-52
2023/11/23 09:38:05;;;;;;;11.83;11.13;;;7.30;25.10;;;;;;4975194;28;20670;-53
2023/11/23 09:40:31;;;;;;;11.27;10.57;;;7.50;24.90;;;;;;4975146;28;20953;-50
2023/11/23 09:42:56;;;;;;;11.60;11.10;;;7.40;24.80;;;;;;4975091;28;20460;-51
2023/11/23 09:45:24;;;;;;;11.93;11.23;;;7.30;25.00;;;;;;4975054;28;20429;-49
2023/11/23 09:47:51;;;;;;;11.63;11.00;;;7.40;25.40;;;;;;4975152;28;20178;-53
2023/11/23 09:50:19;;;;;;;11.03;10.43;;;7.50;25.20;;;;;;4974978;28;20421;-58
2023/11/23 09:52:46;;;;;;;11.23;10.73;;;7.50;25.60;;;;;;4974895;28;20437;-51
2023/11/23 09:55:16;;;;;;;11.10;10.60;;;7.40;26.40;;;;;;4974897;28;20429;-51
2023/11/23 09:57:44;;;;;;;10.80;10.20;;;7.20;26.70;;;;;;4974874;28;20491;-51
2023/11/23 10:00:14;;;;;;;10.33;9.73;;;7.00;27.50;;;;;;4974889;28;20520;-52
2023/11/23 10:02:45;;;;;;;9.80;9.30;;;6.90;28.20;;;;;;4974726;28;20429;-54
2023/11/23 10:05:15;;;;;;;10.37;9.70;;;6.80;28.60;;;;;;4974933;28;20500;-51
2023/11/23 10:07:45;;;;;;;9.70;9.20;;;6.90;28.70;;;;;;4992345;28;21380;-52
2023/11/23 10:10:12;;;;;;;9.80;9.30;;;6.90;29.00;;;;;;4974781;28;20425;-50
2023/11/23 10:12:38;;;;;;;10.10;9.70;;;6.90;29.00;;;;;;4974643;28;20434;-50
2023/11/23 10:15:12;;;;;;;10.67;9.77;;;6.90;28.70;;;;;;4974924;28;20905;-54
2023/11/23 10:17:42;;;;;;;10.17;9.57;;;7.00;28.50;;;;;;4956377;28;20439;-58
2023/11/23 10:20:17;;;;;;;10.13;9.53;;;7.10;28.70;;;;;;4974843;28;20984;-58
2023/11/23 10:22:47;;;;;;;9.20;8.70;;;7.10;28.40;;;;;;4967960;28;20531;-58
2023/11/23 10:25:24;;;;;;;10.37;9.83;;;7.00;28.50;;;;;;4974911;28;20425;-58
2023/11/23 10:27:50;;;;;;;9.77;9.27;;;7.10;29.00;;;;;;4974793;28;20435;-58
2023/11/23 10:30:16;;;;;;;9.97;9.47;;;7.10;28.60;;;;;;4974549;28;20802;-58
2023/11/23 10:32:42;;;;;;;10.60;10.00;;;7.20;28.70;;;;;;4991917;28;20429;-57
2023/11/23 10:35:09;;;;;;;9.57;9.13;;;7.20;28.70;;;;;;4974533;28;20221;-58
2023/11/23 10:37:38;;;;;;;9.53;9.03;;;7.30;28.60;;;;;;4974540;28;20432;-58
2023/11/23 10:40:07;;;;;;;10.53;10.03;;;7.30;28.70;;;;;;4974713;28;20551;-58
2023/11/23 10:42:33;;;;;;;9.90;9.30;;;7.40;28.50;;;;;;4978281;28;20464;-58
2023/11/23 10:45:00;;;;;;;10.20;9.40;;;7.50;28.30;;;;;;4978266;28;20429;-58
2023/11/23 10:47:28;;;;;;;14.03;13.23;;;7.50;28.40;;;;;;4978138;28;20429;-58
2023/11/23 10:49:58;;;;;;;10.57;10.00;;;7.60;28.40;;;;;;4978379;28;20865;-58
2023/11/23 10:52:24;;;;;;;10.60;10.00;;;7.60;28.10;;;;;;4978219;28;20432;-51
2023/11/23 10:54:49;;;;;;;11.57;10.77;;;7.50;28.50;;;;;;4978069;28;20432;-50
2023/11/23 10:57:17;;;;;;;9.70;9.20;;;7.60;28.40;;;;;;4977882;28;20225;-53
2023/11/23 10:59:45;;;;;;;10.93;10.23;;;7.60;28.40;;;;;;4977889;28;20328;-50
2023/11/23 11:02:13;;;;;;;10.93;10.00;;;7.70;28.50;;;;;;4978167;28;20439;-55
2023/11/23 11:04:40;;;;;;;11.00;10.30;;;7.80;28.40;;;;;;4970082;28;20429;-53
2023/11/23 11:07:08;;;;;;;10.10;9.50;;;7.80;28.10;;;;;;4977851;28;20431;-53
2023/11/23 11:09:34;;;;;;;9.80;9.30;;;7.90;28.00;;;;;;4977700;28;20834;-52
2023/11/23 11:12:03;;;;;;;10.43;9.83;;;8.10;27.60;;;;;;4977825;28;20921;-53
2023/11/23 11:14:36;;;;;;;9.70;9.10;;;8.30;27.30;;;;;;4977913;28;20436;-55
2023/11/23 11:17:05;;;;;;;10.40;9.67;;;8.50;27.20;;;;;;4978035;28;20436;-55
2023/11/23 11:19:48;;;;;;;9.83;9.40;;;8.60;26.30;;;;;;4977880;28;20830;-55
2023/11/23 11:22:14;;;;;;;9.20;8.67;;;8.70;26.80;;;;;;4978049;28;20433;-56
2023/11/23 11:24:41;;;;;;;8.90;8.50;;;8.80;26.10;;;;;;4977918;28;20437;-56
2023/11/23 11:27:13;;;;;;;9.13;8.63;;;9.00;25.60;;;;;;4977866;28;20432;-54
2023/11/23 11:29:49;;;;;;;10.17;9.60;;;8.80;25.80;;;;;;4969796;28;20533;-56
2023/11/23 11:32:15;;;;;;;8.87;8.37;;;8.80;25.90;;;;;;4977839;28;20511;-55
2023/11/23 11:34:41;;;;;;;10.17;9.43;;;8.90;25.90;;;;;;4977817;28;20524;-54
2023/11/23 11:37:07;;;;;;;9.73;9.13;;;9.00;25.90;;;;;;4978014;28;20194;-51
2023/11/23 11:39:37;;;;;;;9.33;8.93;;;9.30;25.20;;;;;;4977834;28;20214;-55
2023/11/23 11:42:04;;;;;;;13.00;12.10;;;9.50;24.90;;;;;;4978096;28;20437;-56
2023/11/23 11:44:43;;;;;;;9.67;9.17;;;9.60;24.50;;;;;;4977760;28;20429;-56
2023/11/23 11:47:10;;;;;;;9.03;8.63;;;9.70;24.30;;;;;;4977773;28;20429;-53
2023/11/23 11:49:37;;;;;;;9.70;9.20;;;9.50;23.60;;;;;;4977552;28;20441;-57
2023/11/23 11:52:07;;;;;;;9.10;8.70;;;9.30;24.90;;;;;;4994939;28;20437;-54
2023/11/23 11:54:32;;;;;;;9.10;8.60;;;9.30;24.60;;;;;;4994769;28;20468;-57
2023/11/23 11:57:02;;;;;;;9.53;9.03;;;9.50;24.70;;;;;;4977810;28;20863;-56
2023/11/23 11:59:28;;;;;;;10.03;9.43;;;9.30;24.50;;;;;;4977144;28;20626;-55
2023/11/23 12:01:53;;;;;;;9.80;9.40;;;9.20;25.20;;;;;;4977250;28;20520;-57
2023/11/23 12:04:20;;;;;;;9.80;9.30;;;9.10;25.30;;;;;;4977063;28;20777;-55
2023/11/23 12:06:50;;;;;;;9.50;9.00;;;8.90;25.60;;;;;;4977351;28;20219;-55
2023/11/23 12:09:22;;;;;;;11.17;10.33;;;8.90;26.00;;;;;;4977088;28;20436;-54
2023/11/23 12:12:04;;;;;;;10.47;9.57;;;8.90;26.40;;;;;;4977228;28;20436;-54
2023/11/23 12:14:34;;;;;;;9.87;8.97;;;9.00;26.20;;;;;;4976868;28;20883;-55
2023/11/23 12:17:12;;;;;;;9.17;8.67;;;9.10;25.90;;;;;;4977147;28;20444;-55
2023/11/23 12:19:51;;;;;;;9.37;8.97;;;9.00;26.30;;;;;;4976785;28;20469;-51
2023/11/23 12:22:23;;;;;;;9.73;9.13;;;8.90;26.40;;;;;;4976933;28;20457;-57
2023/11/23 12:24:49;;;;;;;8.60;8.20;;;9.00;26.50;;;;;;4976842;28;20429;-55
2023/11/23 12:27:15;;;;;;;9.50;9.10;;;9.10;26.70;;;;;;4976801;28;21090;-57
2023/11/23 12:29:40;;;;;;;9.33;8.73;;;9.10;26.10;;;;;;4976732;28;20440;-57
2023/11/23 12:32:06;;;;;;;9.20;8.77;;;9.30;25.80;;;;;;4976947;28;20831;-57
2023/11/23 12:34:33;;;;;;;8.40;7.90;;;9.30;25.80;;;;;;4976480;28;20194;-56
2023/11/23 12:37:00;;;;;;;9.43;8.83;;;9.30;26.00;;;;;;4976653;28;20609;-58
2023/11/23 12:39:29;;;;;;;9.47;8.97;;;9.40;25.90;;;;;;4976213;28;20829;-57
2023/11/23 12:41:55;;;;;;;9.90;9.40;;;9.40;26.20;;;;;;4976265;28;20821;-57